createdAt,value
2022-10-07T00:00:18.498Z,9.50
2022-10-07T00:02:48.634Z,9.50
2022-10-07T00:05:19.145Z,9.40
2022-10-07T00:07:49.609Z,9.30
2022-10-07T00:10:18.904Z,9.40
2022-10-07T00:12:48.528Z,9.40
2022-10-07T00:15:17.790Z,9.30
2022-10-07T00:17:48.817Z,9.30
2022-10-07T00:20:18.136Z,9.20
2022-10-07T00:22:48.318Z,9.10
2022-10-07T00:25:17.460Z,9.20
2022-10-07T00:27:46.550Z,9.20
2022-10-07T00:30:16.446Z,9.20
2022-10-07T00:32:45.512Z,9.30
2022-10-07T00:35:14.711Z,9.40
2022-10-07T00:37:44.177Z,9.40
2022-10-07T00:40:16.409Z,9.30
2022-10-07T00:42:48.762Z,9.30
2022-10-07T00:45:21.430Z,9.30
2022-10-07T00:47:54.823Z,9.30
2022-10-07T00:50:29.745Z,9.30
2022-10-07T00:53:10.171Z,9.30
2022-10-07T00:55:40.613Z,9.30
2022-10-07T00:58:10.160Z,9.20
2022-10-07T01:00:41.370Z,9.20
2022-10-07T01:03:10.685Z,9.20
2022-10-07T01:05:39.730Z,9.30
2022-10-07T01:08:08.853Z,9.20
2022-10-07T01:10:52.986Z,9.20
2022-10-07T01:13:33.437Z,9.10
2022-10-07T01:16:14.276Z,9.10
2022-10-07T01:18:53.021Z,9.10
2022-10-07T01:21:41.272Z,9.10
2022-10-07T01:24:33.561Z,9.10
2022-10-07T01:27:11.830Z,9.10
2022-10-07T01:29:44.326Z,9.10
2022-10-07T01:32:17.694Z,9.10
2022-10-07T01:34:51.609Z,9.10
2022-10-07T01:37:25.671Z,9.20
2022-10-07T01:40:03.664Z,9.20
2022-10-07T01:42:35.716Z,9.10
2022-10-07T01:45:08.557Z,9.20
2022-10-07T01:47:38.376Z,9.10
2022-10-07T01:50:13.820Z,9.10
2022-10-07T01:53:18.756Z,9.00
2022-10-07T01:56:03.609Z,9.10
2022-10-07T01:58:55.950Z,9.00
2022-10-07T02:01:38.259Z,9.00
2022-10-07T02:04:33.570Z,9.10
2022-10-07T02:07:18.732Z,9.10
2022-10-07T02:09:53.746Z,9.00
2022-10-07T02:12:35.508Z,8.90
2022-10-07T02:15:15.632Z,8.90
2022-10-07T02:17:54.162Z,8.80
2022-10-07T02:20:30.109Z,8.90
2022-10-07T02:23:03.965Z,8.90
2022-10-07T02:25:40.958Z,8.90
2022-10-07T02:28:13.767Z,8.90
2022-10-07T02:30:49.517Z,8.90
2022-10-07T02:33:20.808Z,8.80
2022-10-07T02:35:56.357Z,8.80
2022-10-07T02:38:26.424Z,8.90
2022-10-07T02:41:07.293Z,8.80
2022-10-07T02:43:46.759Z,8.80
2022-10-07T02:46:23.856Z,8.80
2022-10-07T02:48:59.070Z,8.80
2022-10-07T02:51:35.028Z,8.80
2022-10-07T02:54:06.990Z,8.80
2022-10-07T02:56:42.028Z,8.70
2022-10-07T02:59:16.212Z,8.70
2022-10-07T03:01:52.988Z,8.70
2022-10-07T03:04:23.052Z,8.70
2022-10-07T03:06:52.663Z,8.60
2022-10-07T03:09:21.639Z,8.70
2022-10-07T03:11:50.591Z,8.70
2022-10-07T03:14:19.417Z,8.70
2022-10-07T03:16:49.753Z,8.70
2022-10-07T03:19:18.824Z,8.70
2022-10-07T03:21:47.753Z,8.60
2022-10-07T03:24:18.690Z,8.60
2022-10-07T03:26:47.639Z,8.60
2022-10-07T03:29:17.112Z,8.60
2022-10-07T03:31:45.936Z,8.60
2022-10-07T03:34:16.013Z,8.60
2022-10-07T03:36:45.682Z,8.60
2022-10-07T03:39:14.370Z,8.60
2022-10-07T03:41:43.070Z,8.60
2022-10-07T03:44:11.806Z,8.60
2022-10-07T03:46:40.683Z,8.60
2022-10-07T03:49:09.652Z,8.60
2022-10-07T03:51:40.683Z,8.70
2022-10-07T03:54:09.958Z,8.50
2022-10-07T03:56:39.081Z,8.50
2022-10-07T03:59:07.879Z,8.50
2022-10-07T04:01:37.409Z,8.50
2022-10-07T04:04:07.808Z,8.50
2022-10-07T04:06:36.876Z,8.50
2022-10-07T04:09:07.355Z,8.50
2022-10-07T04:11:36.064Z,8.60
2022-10-07T04:14:06.127Z,8.60
2022-10-07T04:16:38.074Z,8.60
2022-10-07T04:19:07.633Z,8.60
2022-10-07T04:21:37.445Z,8.60
2022-10-07T04:24:08.036Z,8.60
2022-10-07T04:26:37.143Z,8.70
2022-10-07T04:29:05.910Z,8.80
2022-10-07T04:31:35.009Z,8.80
2022-10-07T04:34:03.743Z,8.90
2022-10-07T04:36:32.976Z,9.00
2022-10-07T04:39:01.794Z,9.00
2022-10-07T04:41:31.934Z,9.00
2022-10-07T04:44:01.024Z,9.00
2022-10-07T04:46:29.944Z,9.00
2022-10-07T04:48:59.162Z,9.00
2022-10-07T04:51:28.176Z,9.00
2022-10-07T04:53:57.338Z,8.90
2022-10-07T04:56:28.485Z,9.00
2022-10-07T04:58:58.919Z,8.90
2022-10-07T05:01:27.691Z,8.80
2022-10-07T05:03:56.453Z,8.70
2022-10-07T05:06:25.154Z,8.60
2022-10-07T05:08:54.958Z,8.50
2022-10-07T05:11:25.770Z,8.50
2022-10-07T05:13:54.503Z,8.50
2022-10-07T05:16:24.703Z,8.40
2022-10-07T05:18:53.573Z,8.40
2022-10-07T05:21:22.190Z,8.50
2022-10-07T05:23:51.345Z,8.50
2022-10-07T05:26:20.148Z,8.50
2022-10-07T05:28:49.531Z,8.50
2022-10-07T05:31:19.141Z,8.50
2022-10-07T05:33:49.941Z,8.40
2022-10-07T05:36:20.241Z,8.40
2022-10-07T05:38:49.420Z,8.50
2022-10-07T05:41:18.358Z,8.50
2022-10-07T05:43:48.238Z,8.50
2022-10-07T05:46:20.287Z,8.50
2022-10-07T05:48:52.812Z,8.40
2022-10-07T05:51:22.418Z,8.40
2022-10-07T05:53:56.013Z,8.40
2022-10-07T05:56:25.798Z,8.40
2022-10-07T05:58:56.241Z,8.50
2022-10-07T06:01:27.939Z,8.50
2022-10-07T06:03:59.318Z,8.60
2022-10-07T06:06:29.637Z,8.70
2022-10-07T06:09:20.075Z,8.70
2022-10-07T06:12:06.657Z,8.70
2022-10-07T06:14:35.643Z,8.70
2022-10-07T06:17:04.929Z,8.70
2022-10-07T06:19:35.150Z,8.80
2022-10-07T06:22:04.063Z,8.80
2022-10-07T06:24:34.150Z,8.80
2022-10-07T06:27:03.005Z,8.90
2022-10-07T06:29:31.849Z,8.90
2022-10-07T06:32:02.411Z,9.00
2022-10-07T06:34:32.776Z,9.10
2022-10-07T06:37:03.077Z,9.30
2022-10-07T06:39:32.159Z,9.50
2022-10-07T06:42:02.158Z,9.80
2022-10-07T06:44:31.472Z,10.30
2022-10-07T06:47:00.198Z,10.90
2022-10-07T06:49:29.136Z,11.60
2022-10-07T06:51:58.279Z,12.20
2022-10-07T06:54:29.118Z,12.40
2022-10-07T06:56:58.173Z,12.90
2022-10-07T06:59:27.454Z,13.00
2022-10-07T07:01:56.676Z,12.90
2022-10-07T07:04:29.793Z,12.50
2022-10-07T07:06:58.894Z,11.90
2022-10-07T07:09:29.643Z,11.40
2022-10-07T07:11:59.332Z,11.30
2022-10-07T07:14:28.861Z,11.30
2022-10-07T07:16:57.718Z,11.50
2022-10-07T07:19:26.766Z,11.50
2022-10-07T07:21:56.003Z,11.70
2022-10-07T07:24:24.873Z,11.80
2022-10-07T07:26:55.432Z,12.00
2022-10-07T07:29:24.368Z,13.20
2022-10-07T07:31:53.444Z,13.80
2022-10-07T07:34:22.604Z,14.60
2022-10-07T07:36:53.095Z,15.30
2022-10-07T07:39:22.170Z,15.50
2022-10-07T07:41:51.091Z,16.00
2022-10-07T07:44:21.632Z,15.80
2022-10-07T07:46:52.366Z,15.70
2022-10-07T07:49:24.239Z,16.10
2022-10-07T07:51:53.903Z,16.90
2022-10-07T07:54:23.514Z,16.90
2022-10-07T07:56:52.709Z,16.70
2022-10-07T07:59:25.961Z,16.80
2022-10-07T08:01:56.251Z,16.40
2022-10-07T08:04:26.009Z,16.20
2022-10-07T08:06:55.769Z,16.80
2022-10-07T08:09:28.252Z,16.70
2022-10-07T08:11:57.676Z,16.50
2022-10-07T08:14:28.230Z,15.60
2022-10-07T08:16:59.697Z,14.80
2022-10-07T08:19:31.886Z,14.40
2022-10-07T08:22:00.651Z,13.80
2022-10-07T08:24:29.919Z,13.60
2022-10-07T08:27:01.393Z,13.60
2022-10-07T08:29:32.051Z,13.60
2022-10-07T08:34:53.916Z,13.80
2022-10-07T08:37:23.467Z,13.90
2022-10-07T08:39:56.284Z,13.90
2022-10-07T08:42:37.990Z,14.00
2022-10-07T08:45:20.053Z,14.10
2022-10-07T08:47:52.652Z,14.20
2022-10-07T08:50:32.037Z,14.30
2022-10-07T08:53:05.381Z,14.50
2022-10-07T08:56:07.391Z,14.70
2022-10-07T08:59:13.946Z,15.50
2022-10-07T09:02:11.693Z,16.20
2022-10-07T09:04:55.167Z,17.20
2022-10-07T09:07:36.301Z,18.10
2022-10-07T09:10:27.629Z,19.00
2022-10-07T09:13:07.979Z,18.60
2022-10-07T09:15:43.656Z,18.40
2022-10-07T09:18:27.163Z,18.90
2022-10-07T09:20:57.828Z,18.90
2022-10-07T09:23:36.105Z,19.70
2022-10-07T09:26:13.066Z,20.40
2022-10-07T09:28:43.363Z,19.30
2022-10-07T09:31:16.750Z,19.50
2022-10-07T09:33:50.680Z,19.10
2022-10-07T09:36:20.338Z,19.10
2022-10-07T09:38:53.025Z,18.80
2022-10-07T09:41:32.377Z,19.30
2022-10-07T09:44:07.424Z,19.70
2022-10-07T09:46:52.816Z,19.30
2022-10-07T09:49:44.363Z,19.80
2022-10-07T09:52:23.494Z,19.70
2022-10-07T09:54:55.234Z,19.70
2022-10-07T09:57:34.159Z,19.80
2022-10-07T10:00:27.095Z,19.50
2022-10-07T10:03:07.857Z,18.70
2022-10-07T10:05:42.885Z,18.60
2022-10-07T10:08:27.339Z,18.70
2022-10-07T10:12:09.786Z,18.70
2022-10-07T10:14:50.889Z,18.80
2022-10-07T10:17:32.662Z,18.90
2022-10-07T10:20:33.701Z,19.00
2022-10-07T10:23:29.320Z,19.00
2022-10-07T10:26:38.660Z,18.90
2022-10-07T10:29:34.538Z,19.10
2022-10-07T10:33:04.247Z,19.20
2022-10-07T10:35:41.286Z,18.90
2022-10-07T10:38:40.632Z,19.30
2022-10-07T10:41:28.155Z,19.20
2022-10-07T10:44:34.177Z,19.10
2022-10-07T10:50:04.396Z,19.30
2022-10-07T10:52:55.860Z,19.30
2022-10-07T10:56:00.271Z,19.30
2022-10-07T10:58:44.402Z,19.20
2022-10-07T11:01:29.102Z,18.80
2022-10-07T11:04:26.467Z,18.90
2022-10-07T11:07:05.793Z,19.10
2022-10-07T11:09:43.212Z,19.10
2022-10-07T11:12:27.842Z,18.80
2022-10-07T11:15:02.939Z,18.40
2022-10-07T11:17:37.706Z,18.80
2022-10-07T11:20:20.961Z,19.10
2022-10-07T11:23:04.231Z,19.20
2022-10-07T11:25:43.106Z,19.10
2022-10-07T11:28:23.043Z,18.90
2022-10-07T11:31:03.568Z,18.80
2022-10-07T11:33:46.636Z,18.60
2022-10-07T11:36:22.719Z,19.00
2022-10-07T11:38:55.164Z,19.10
2022-10-07T11:41:32.668Z,19.30
2022-10-07T11:44:09.845Z,19.30
2022-10-07T11:46:45.085Z,19.30
2022-10-07T11:49:26.562Z,18.90
2022-10-07T11:52:08.719Z,18.90
2022-10-07T11:54:59.770Z,19.50
2022-10-07T11:57:49.643Z,19.70
2022-10-07T12:00:34.765Z,19.60
2022-10-07T12:03:40.638Z,20.00
2022-10-07T12:06:14.411Z,20.10
2022-10-07T12:09:06.195Z,20.00
2022-10-07T12:11:48.942Z,19.80
2022-10-07T12:15:00.706Z,19.70
2022-10-07T12:17:31.631Z,19.90
2022-10-07T12:20:45.340Z,19.30
2022-10-07T12:23:50.077Z,19.40
2022-10-07T12:26:49.305Z,19.70
2022-10-07T12:29:34.583Z,20.20
2022-10-07T12:32:04.855Z,20.00
2022-10-07T12:34:44.337Z,19.50
2022-10-07T12:37:51.782Z,19.80
2022-10-07T12:40:31.341Z,20.00
2022-10-07T12:43:18.614Z,19.80
2022-10-07T12:45:48.511Z,19.90
2022-10-07T12:48:24.034Z,19.70
2022-10-07T12:50:58.479Z,19.90
2022-10-07T12:53:30.959Z,20.00
2022-10-07T12:56:18.857Z,20.10
2022-10-07T12:59:28.034Z,20.00
2022-10-07T13:02:44.269Z,20.30
2022-10-07T13:06:24.046Z,20.40
2022-10-07T13:09:39.016Z,19.80
2022-10-07T13:12:26.263Z,19.30
2022-10-07T13:15:14.876Z,19.70
2022-10-07T13:17:52.574Z,19.50
2022-10-07T13:20:41.377Z,19.20
2022-10-07T13:23:20.908Z,18.80
2022-10-07T13:25:56.421Z,18.80
2022-10-07T13:28:39.093Z,19.10
2022-10-07T13:31:20.552Z,18.60
2022-10-07T13:33:50.012Z,18.20
2022-10-07T13:36:26.294Z,18.20
2022-10-07T13:39:12.314Z,18.40
2022-10-07T13:41:50.914Z,18.60
2022-10-07T13:44:24.541Z,18.90
2022-10-07T13:47:00.248Z,19.20
2022-10-07T13:49:36.206Z,19.60
2022-10-07T13:52:14.925Z,20.20
2022-10-07T13:55:00.875Z,20.70
2022-10-07T13:57:34.045Z,20.70
2022-10-07T14:00:18.124Z,21.10
2022-10-07T14:02:51.181Z,21.00
2022-10-07T14:05:22.725Z,21.10
2022-10-07T14:08:03.261Z,21.10
2022-10-07T14:10:34.925Z,20.90
2022-10-07T14:13:11.650Z,20.60
2022-10-07T14:15:52.270Z,20.50
2022-10-07T14:18:23.525Z,20.70
2022-10-07T14:20:57.016Z,21.10
2022-10-07T14:23:31.662Z,21.00
2022-10-07T14:26:07.867Z,20.90
2022-10-07T14:28:39.466Z,20.60
2022-10-07T14:31:38.432Z,20.20
2022-10-07T14:34:35.909Z,19.90
2022-10-07T14:37:08.376Z,19.60
2022-10-07T14:39:41.028Z,19.30
2022-10-07T14:42:15.446Z,19.80
2022-10-07T14:44:45.352Z,19.90
2022-10-07T14:47:17.670Z,20.40
2022-10-07T14:49:48.961Z,20.80
2022-10-07T14:52:25.207Z,21.00
2022-10-07T14:54:56.368Z,20.90
2022-10-07T14:57:25.370Z,21.10
2022-10-07T14:59:57.987Z,20.80
2022-10-07T15:02:32.608Z,20.50
2022-10-07T15:05:03.421Z,20.10
2022-10-07T15:07:32.241Z,19.30
2022-10-07T15:10:01.540Z,19.00
2022-10-07T15:12:30.852Z,18.60
2022-10-07T15:14:59.681Z,18.70
2022-10-07T15:17:29.339Z,19.00
2022-10-07T15:19:58.582Z,19.00
2022-10-07T15:22:31.096Z,18.90
2022-10-07T15:24:59.925Z,19.20
2022-10-07T15:27:28.612Z,19.00
2022-10-07T15:29:57.672Z,18.80
2022-10-07T15:32:29.589Z,19.00
2022-10-07T15:34:59.295Z,19.10
2022-10-07T15:37:29.841Z,19.30
2022-10-07T15:39:59.118Z,19.10
2022-10-07T15:42:28.726Z,18.90
2022-10-07T15:44:57.776Z,18.40
2022-10-07T15:47:27.680Z,18.50
2022-10-07T15:50:21.660Z,18.40
2022-10-07T15:52:51.863Z,17.80
2022-10-07T15:55:21.008Z,17.20
2022-10-07T15:57:50.376Z,17.20
2022-10-07T16:00:19.534Z,17.40
2022-10-07T16:02:54.636Z,17.40
2022-10-07T16:05:24.530Z,17.00
2022-10-07T16:07:54.855Z,16.80
2022-10-07T16:10:23.779Z,16.60
2022-10-07T16:12:53.009Z,16.30
2022-10-07T16:15:23.006Z,16.10
2022-10-07T16:17:53.540Z,15.80
2022-10-07T16:20:24.999Z,15.50
2022-10-07T16:22:55.501Z,15.20
2022-10-07T16:25:24.341Z,15.10
2022-10-07T16:28:10.811Z,14.90
2022-10-07T16:30:45.419Z,14.80
2022-10-07T16:33:14.577Z,14.70
2022-10-07T16:35:43.420Z,14.70
2022-10-07T16:38:13.945Z,14.60
2022-10-07T16:40:52.915Z,14.40
2022-10-07T16:43:21.476Z,14.30
2022-10-07T16:45:50.718Z,14.10
2022-10-07T16:48:20.067Z,14.00
2022-10-07T16:50:52.440Z,13.90
2022-10-07T16:53:23.343Z,13.90
2022-10-07T16:55:52.113Z,13.90
2022-10-07T16:58:21.160Z,14.00
2022-10-07T17:00:50.716Z,14.00
2022-10-07T17:03:22.624Z,14.00
2022-10-07T17:05:57.636Z,14.10
2022-10-07T17:08:31.165Z,14.10
2022-10-07T17:11:07.462Z,14.10
2022-10-07T17:13:40.073Z,14.20
2022-10-07T17:16:16.743Z,14.20
2022-10-07T17:18:45.661Z,14.20
2022-10-07T17:21:14.536Z,14.20
2022-10-07T17:23:46.163Z,14.20
2022-10-07T17:26:15.266Z,14.20
2022-10-07T17:28:49.852Z,14.20
2022-10-07T17:31:19.597Z,14.20
2022-10-07T17:33:49.151Z,14.20
2022-10-07T17:36:38.376Z,14.20
2022-10-07T17:39:09.222Z,14.30
2022-10-07T17:41:40.476Z,14.30
2022-10-07T17:44:12.562Z,14.30
2022-10-07T17:46:43.014Z,14.30
2022-10-07T17:49:15.120Z,14.30
2022-10-07T17:51:45.034Z,14.30
2022-10-07T17:54:16.516Z,14.30
2022-10-07T17:56:48.025Z,14.30
2022-10-07T17:59:22.213Z,14.30
2022-10-07T18:01:54.032Z,14.20
2022-10-07T18:04:25.193Z,14.20
2022-10-07T18:06:54.333Z,14.20
2022-10-07T18:09:24.616Z,14.10
2022-10-07T18:12:11.896Z,14.10
2022-10-07T18:15:01.285Z,14.10
2022-10-07T18:17:30.197Z,14.10
2022-10-07T18:20:00.280Z,14.10
2022-10-07T18:22:29.287Z,14.10
2022-10-07T18:24:59.780Z,14.00
2022-10-07T18:27:30.532Z,14.00
2022-10-07T18:30:00.576Z,13.90
2022-10-07T18:32:29.354Z,13.90
2022-10-07T18:34:58.640Z,13.80
2022-10-07T18:37:27.966Z,13.70
2022-10-07T18:39:56.544Z,13.60
2022-10-07T18:42:27.116Z,13.50
2022-10-07T18:44:56.206Z,13.40
2022-10-07T18:47:25.310Z,13.40
2022-10-07T18:49:57.440Z,13.30
2022-10-07T18:52:26.210Z,13.20
2022-10-07T18:54:55.083Z,13.20
2022-10-07T18:57:25.465Z,13.20
2022-10-07T18:59:54.413Z,13.10
2022-10-07T19:02:23.191Z,13.00
2022-10-07T19:04:51.931Z,12.90
2022-10-07T19:07:21.174Z,12.70
2022-10-07T19:09:50.086Z,12.70
2022-10-07T19:12:36.329Z,12.70
2022-10-07T19:15:07.965Z,12.70
2022-10-07T19:17:37.428Z,12.70
2022-10-07T19:20:09.340Z,12.80
2022-10-07T19:22:39.877Z,12.90
2022-10-07T19:25:29.540Z,13.00
2022-10-07T19:28:09.312Z,13.10
2022-10-07T19:30:42.543Z,13.10
2022-10-07T19:33:14.883Z,13.10
2022-10-07T19:35:44.279Z,13.10
2022-10-07T19:38:13.561Z,13.20
2022-10-07T19:40:47.381Z,13.20
2022-10-07T19:43:19.788Z,13.30
2022-10-07T19:45:51.836Z,13.30
2022-10-07T19:48:22.676Z,13.40
2022-10-07T19:51:00.627Z,13.50
2022-10-07T19:53:34.320Z,13.50
2022-10-07T19:56:07.165Z,13.60
2022-10-07T19:58:38.891Z,13.60
2022-10-07T20:01:12.575Z,13.60
2022-10-07T20:03:43.265Z,13.60
2022-10-07T20:06:15.770Z,13.50
2022-10-07T20:08:48.010Z,13.40
2022-10-07T20:11:16.954Z,13.30
2022-10-07T20:13:48.067Z,13.30
2022-10-07T20:16:22.089Z,13.30
2022-10-07T20:18:59.754Z,13.30
2022-10-07T20:21:31.062Z,13.30
2022-10-07T20:24:01.658Z,13.30
2022-10-07T20:26:33.617Z,13.20
2022-10-07T20:29:05.580Z,13.20
2022-10-07T20:31:39.024Z,13.10
2022-10-07T20:34:12.131Z,13.00
2022-10-07T20:36:41.916Z,12.90
2022-10-07T20:39:34.148Z,12.90
2022-10-07T20:42:26.078Z,12.80
2022-10-07T20:44:55.175Z,12.80
2022-10-07T20:47:26.737Z,12.90
2022-10-07T20:49:58.123Z,12.70
2022-10-07T20:52:30.084Z,12.80
2022-10-07T20:54:59.890Z,12.80
2022-10-07T20:57:36.038Z,12.80
2022-10-07T21:00:09.558Z,12.80
2022-10-07T21:02:40.222Z,12.80
2022-10-07T21:05:10.503Z,12.70
2022-10-07T21:07:40.255Z,12.60
2022-10-07T21:10:10.410Z,12.70
2022-10-07T21:12:40.889Z,12.70
2022-10-07T21:15:11.105Z,12.90
2022-10-07T21:17:44.562Z,12.90
2022-10-07T21:20:13.434Z,13.00
2022-10-07T21:22:42.114Z,12.90
2022-10-07T21:25:12.040Z,12.90
2022-10-07T21:27:40.576Z,12.90
2022-10-07T21:30:12.192Z,12.90
2022-10-07T21:32:42.605Z,12.90
2022-10-07T21:35:12.126Z,13.00
2022-10-07T21:37:41.421Z,13.00
2022-10-07T21:40:11.509Z,13.10
2022-10-07T21:42:40.130Z,13.20
2022-10-07T21:45:11.368Z,13.20
2022-10-07T21:47:43.903Z,13.20
2022-10-07T21:50:13.234Z,13.20
2022-10-07T21:52:42.072Z,13.20
2022-10-07T21:55:11.431Z,13.20
2022-10-07T21:57:42.050Z,13.20
2022-10-07T22:00:13.767Z,13.20
2022-10-07T22:02:44.554Z,13.20
2022-10-07T22:05:14.661Z,13.10
2022-10-07T22:08:03.690Z,13.10
2022-10-07T22:10:32.900Z,13.20
2022-10-07T22:13:02.120Z,13.10
2022-10-07T22:15:30.865Z,13.10
2022-10-07T22:18:01.481Z,13.10
2022-10-07T22:20:31.767Z,13.10
2022-10-07T22:23:01.748Z,13.10
2022-10-07T22:25:31.794Z,13.10
2022-10-07T22:28:00.758Z,13.10
2022-10-07T22:30:30.422Z,13.10
2022-10-07T22:33:02.797Z,13.10
2022-10-07T22:35:33.956Z,13.10
2022-10-07T22:38:02.969Z,13.00
2022-10-07T22:40:32.497Z,13.00
2022-10-07T22:43:01.345Z,12.90
2022-10-07T22:45:30.548Z,12.80
2022-10-07T22:48:00.969Z,12.80
2022-10-07T22:50:33.092Z,12.80
2022-10-07T22:53:02.174Z,12.80
2022-10-07T22:55:31.690Z,12.80
2022-10-07T22:58:04.529Z,12.70
2022-10-07T23:00:34.662Z,12.70
2022-10-07T23:03:05.544Z,12.70
2022-10-07T23:05:37.679Z,12.80
2022-10-07T23:08:06.564Z,12.70
2022-10-07T23:10:36.806Z,12.60
2022-10-07T23:13:06.040Z,12.60
2022-10-07T23:15:35.044Z,12.50
2022-10-07T23:18:05.707Z,12.50
2022-10-07T23:20:34.506Z,12.50
2022-10-07T23:23:03.531Z,12.40
2022-10-07T23:25:32.521Z,12.40
2022-10-07T23:28:04.887Z,12.30
2022-10-07T23:30:34.815Z,12.30
2022-10-07T23:33:05.065Z,12.30
2022-10-07T23:35:34.040Z,12.30
2022-10-07T23:38:02.606Z,12.30
2022-10-07T23:40:36.336Z,12.30
2022-10-07T23:43:05.309Z,12.20
2022-10-07T23:45:34.393Z,12.20
2022-10-07T23:48:07.368Z,12.10
2022-10-07T23:50:44.386Z,12.00
2022-10-07T23:53:13.354Z,11.90
2022-10-07T23:55:49.518Z,11.80
2022-10-07T23:58:29.716Z,11.80
